Edith Kirk — 2DST9 — position and weather

sailwx.info

Track history (hours):
 
Tides and Currents Weather Stations Pressure Air Temp Water Temp Dewpoint Dewpoint Depression Visibility Wind Speed Wind Dir Waves Ship Positions

Edith Kirk

Last reported at 2014-Oct-31 03:15 UTC. Time now 2014-Oct-31 05:44 UTC.
Position N 43°24' E 034°51'.

Length 183 m; draft 7.5 m.

Type: Tanker. MMSI: 235081745.

Date/timePositionNaut miles runAvg speedWind from/ knotsBaromVisibWave heightAir tempDewpointWater temp
2014-Oct-31 03:15N 43°24' E 034°51'1810.8
2014-Oct-31 01:33N 43°13' E 034°31'1110.8
2014-Oct-31 00:30N 43°06' E 034°18'  
2014-Oct-27 07:25N 41°32' E 029°19'3 3.6
2014-Oct-27 06:32N 41°29' E 029°17'4 3.6
2014-Oct-27 05:30N 41°25' E 029°15'3 3.4
2014-Oct-27 04:33N 41°22' E 029°13'3 2.7
2014-Oct-27 03:33N 41°20' E 029°12'28 2.1
2014-Oct-26 14:15N 40°56' E 028°52'0 0.1
2014-Oct-26 12:21N 40°56' E 028°52'0 0.0
2014-Oct-26 02:09N 40°56' E 028°51'0 0.0
2014-Oct-25 05:09N 40°56' E 028°51'1 0.8
2014-Oct-25 04:30N 40°56' E 028°52'3 3.2
2014-Oct-25 03:33N 40°56' E 028°56'8 7.9
2014-Oct-25 02:33N 40°50' E 029°02'1211.6
2014-Oct-25 01:33N 40°43' E 029°14'3 2.8
2014-Oct-25 00:32N 40°42' E 029°18'6 6.2
2014-Oct-24 23:32N 40°42' E 029°10'5 5.1
2014-Oct-24 22:33N 40°42' E 029°16'5 4.9
2014-Oct-24 21:33N 40°44' E 029°22'  
Track history (hours):
 
Tides and Currents Weather Stations Pressure Air Temp Water Temp Dewpoint Dewpoint Depression Visibility Wind Speed Wind Dir Waves Ship Positions

Edith Kirk

Last reported at 2014-Oct-31 03:15 UTC. Time now 2014-Oct-31 05:44 UTC.
Position N 43°24' E 034°51'.

Length 183 m; draft 7.5 m.

Type: Tanker. MMSI: 235081745.

Date/timePositionNaut miles runAvg speedWind from/ knotsBaromVisibWave heightAir tempDewpointWater temp
2014-Oct-31 03:15N 43°24' E 034°51'1810.8
2014-Oct-31 01:33N 43°13' E 034°31'1110.8
2014-Oct-31 00:30N 43°06' E 034°18'  
2014-Oct-27 07:25N 41°32' E 029°19'3 3.6
2014-Oct-27 06:32N 41°29' E 029°17'4 3.6
2014-Oct-27 05:30N 41°25' E 029°15'3 3.4
2014-Oct-27 04:33N 41°22' E 029°13'3 2.7
2014-Oct-27 03:33N 41°20' E 029°12'28 2.1
2014-Oct-26 14:15N 40°56' E 028°52'0 0.1
2014-Oct-26 12:21N 40°56' E 028°52'0 0.0
2014-Oct-26 02:09N 40°56' E 028°51'0 0.0
2014-Oct-25 05:09N 40°56' E 028°51'1 0.8
2014-Oct-25 04:30N 40°56' E 028°52'3 3.2
2014-Oct-25 03:33N 40°56' E 028°56'8 7.9
2014-Oct-25 02:33N 40°50' E 029°02'1211.6
2014-Oct-25 01:33N 40°43' E 029°14'3 2.8
2014-Oct-25 00:32N 40°42' E 029°18'6 6.2
2014-Oct-24 23:32N 40°42' E 029°10'5 5.1
2014-Oct-24 22:33N 40°42' E 029°16'5 4.9
2014-Oct-24 21:33N 40°44' E 029°22'  

Dump ship's entire track history